Time;durP1;ratioP1;P1;durP2;ratioP2;P2;SDS_P1;SDS_P2;PMS_P1;PMS_P2;Temp;Humidity;BMP_temperature;BMP_pressure;BME280_temperature;BME280_humidity;BME280_pressure;Samples;Min_cycle;Max_cycle;Signal;HPM_P1;HPM_P2
2021/10/09 00:02:15;;;;;;;15.60;6.53;;;10.50;99.90;;;;;;5076339;28;20547;-46
2021/10/09 00:04:42;;;;;;;15.23;6.30;;;10.50;99.90;;;;;;5076264;28;20475;-44
2021/10/09 00:07:09;;;;;;;12.00;6.37;;;10.40;99.90;;;;;;5076348;28;20458;-44
2021/10/09 00:09:36;;;;;;;18.27;6.80;;;10.40;99.90;;;;;;5075887;28;20459;-42
2021/10/09 00:12:03;;;;;;;14.57;6.97;;;10.30;99.90;;;;;;5076998;28;20821;-52
2021/10/09 00:14:29;;;;;;;9.80;6.50;;;10.30;99.90;;;;;;5076239;28;20875;-45
2021/10/09 00:16:56;;;;;;;11.07;5.70;;;10.30;99.90;;;;;;5076111;28;20447;-43
2021/10/09 00:19:24;;;;;;;15.20;6.77;;;10.30;99.90;;;;;;5076456;28;20961;-43
2021/10/09 00:21:51;;;;;;;10.33;5.90;;;10.20;99.90;;;;;;5076210;28;20539;-44
2021/10/09 00:24:20;;;;;;;13.63;6.33;;;10.20;99.90;;;;;;5075711;28;20451;-46
2021/10/09 00:26:48;;;;;;;17.70;6.20;;;10.20;99.90;;;;;;5075881;28;20504;-45
2021/10/09 00:29:14;;;;;;;11.73;5.77;;;10.20;99.90;;;;;;5075860;28;20773;-44
2021/10/09 00:31:41;;;;;;;9.77;6.50;;;10.20;99.90;;;;;;5075701;28;20470;-48
2021/10/09 00:34:08;;;;;;;21.10;7.17;;;10.20;99.90;;;;;;5075799;28;20442;-45
2021/10/09 00:36:36;;;;;;;15.20;6.93;;;10.00;99.90;;;;;;5075719;28;20447;-45
2021/10/09 00:39:09;;;;;;;18.03;6.80;;;10.00;99.90;;;;;;5090320;22;20486;-42
2021/10/09 00:41:38;;;;;;;11.03;5.97;;;9.90;99.90;;;;;;5084602;28;20446;-46
2021/10/09 00:44:09;;;;;;;20.87;6.90;;;9.90;99.90;;;;;;5111928;22;20493;-45
2021/10/09 00:46:37;;;;;;;13.87;6.70;;;9.90;99.90;;;;;;5099306;28;20451;-46
2021/10/09 00:49:04;;;;;;;7.53;5.30;;;9.80;99.90;;;;;;5095437;22;20486;-40
2021/10/09 00:51:30;;;;;;;10.50;5.77;;;9.80;99.90;;;;;;5084048;28;20466;-44
2021/10/09 00:54:03;;;;;;;16.60;6.20;;;9.80;99.90;;;;;;5100588;22;20497;-43
2021/10/09 00:56:37;;;;;;;13.90;6.23;;;9.70;99.90;;;;;;5099227;28;20445;-42
2021/10/09 00:59:04;;;;;;;8.10;6.10;;;9.70;99.90;;;;;;5223748;22;20469;-41
2021/10/09 01:01:35;;;;;;;13.23;5.80;;;9.70;99.90;;;;;;5086375;28;20461;-46
2021/10/09 01:04:04;;;;;;;13.30;6.27;;;9.70;99.90;;;;;;5097471;22;20593;-43
2021/10/09 01:06:31;;;;;;;16.17;6.70;;;9.60;99.90;;;;;;5058714;28;20749;-43
2021/10/09 01:08:59;;;;;;;11.03;7.07;;;9.60;99.90;;;;;;5070213;22;20528;-42
2021/10/09 01:11:26;;;;;;;12.27;5.63;;;9.60;99.90;;;;;;5113513;22;20560;-45
2021/10/09 01:13:53;;;;;;;12.43;6.30;;;9.60;99.90;;;;;;5078296;28;20917;-43
2021/10/09 01:16:21;;;;;;;13.07;7.00;;;9.60;99.90;;;;;;5107842;22;20552;-43
2021/10/09 01:18:49;;;;;;;18.03;8.00;;;9.50;99.90;;;;;;5061861;28;20938;-45
2021/10/09 01:23:48;;;;;;;14.57;6.53;;;9.40;99.90;;;;;;5084125;22;20561;-44
2021/10/09 01:26:15;;;;;;;18.13;7.97;;;9.30;99.90;;;;;;5078716;28;20458;-44
2021/10/09 01:28:43;;;;;;;18.80;6.80;;;9.30;99.90;;;;;;5104134;22;20481;-46
2021/10/09 01:31:10;;;;;;;19.87;6.50;;;9.30;99.90;;;;;;5099021;28;20464;-43
2021/10/09 01:33:45;;;;;;;52.10;7.33;;;9.30;99.90;;;;;;5091185;22;20592;-44
2021/10/09 01:36:12;;;;;;;8.03;5.67;;;9.30;99.90;;;;;;5078741;28;20478;-44
2021/10/09 01:38:41;;;;;;;10.03;5.33;;;9.30;99.90;;;;;;5100527;22;20489;-44
2021/10/09 01:41:10;;;;;;;16.30;7.80;;;9.30;99.90;;;;;;5099212;28;20486;-47
2021/10/09 01:43:37;;;;;;;10.17;6.23;;;9.20;99.90;;;;;;5093573;22;20498;-46
2021/10/09 01:46:04;;;;;;;14.53;6.67;;;9.20;99.90;;;;;;5081117;28;20447;-51
2021/10/09 01:48:32;;;;;;;12.00;5.57;;;9.30;99.90;;;;;;5091807;22;21036;-45
2021/10/09 01:50:59;;;;;;;17.57;7.57;;;9.30;99.90;;;;;;5076296;28;20467;-42
2021/10/09 01:53:32;;;;;;;19.47;6.27;;;9.30;99.90;;;;;;5084942;22;20486;-46
2021/10/09 01:56:08;;;;;;;15.80;7.23;;;9.20;99.90;;;;;;5078572;28;20470;-42
2021/10/09 01:58:36;;;;;;;15.10;7.20;;;9.20;99.90;;;;;;5085473;22;20486;-48
2021/10/09 02:01:03;;;;;;;12.53;7.23;;;9.20;99.90;;;;;;5078424;28;20527;-46
2021/10/09 02:03:33;;;;;;;13.77;6.03;;;9.30;99.90;;;;;;5085044;22;21017;-45
2021/10/09 02:06:01;;;;;;;26.80;7.40;;;9.30;99.90;;;;;;5078236;28;20903;-45
2021/10/09 02:08:43;;;;;;;12.70;6.53;;;9.30;99.90;;;;;;5085607;22;21070;-47
2021/10/09 02:11:12;;;;;;;9.90;5.93;;;9.40;99.90;;;;;;5078138;28;20415;-46
2021/10/09 02:13:43;;;;;;;16.43;6.87;;;9.30;99.90;;;;;;5101437;22;20555;-42
2021/10/09 02:16:19;;;;;;;13.10;6.67;;;9.30;99.90;;;;;;5083720;28;20443;-49
2021/10/09 02:19:10;;;;;;;14.60;6.90;;;9.30;99.90;;;;;;5087027;22;20465;-46
2021/10/09 02:24:28;;;;;;;19.43;7.13;;;9.20;99.90;;;;;;5100149;22;20480;-46
2021/10/09 02:26:58;;;;;;;10.83;5.77;;;9.20;99.90;;;;;;5078847;28;20513;-45
2021/10/09 02:29:29;;;;;;;11.73;6.70;;;9.20;99.90;;;;;;5086184;22;20517;-45
2021/10/09 02:31:59;;;;;;;14.77;7.37;;;9.20;99.90;;;;;;5078555;28;20438;-44
2021/10/09 02:34:26;;;;;;;10.07;5.90;;;9.10;99.90;;;;;;5085032;22;20569;-45
2021/10/09 02:36:54;;;;;;;10.20;5.90;;;9.10;99.90;;;;;;5078809;28;20442;-44
2021/10/09 02:39:21;;;;;;;14.53;6.33;;;9.00;99.90;;;;;;5086029;22;20446;-45
2021/10/09 02:41:52;;;;;;;15.90;6.83;;;9.00;99.90;;;;;;5079830;28;20465;-45
2021/10/09 02:47:00;;;;;;;23.03;6.60;;;9.00;99.90;;;;;;5098584;22;20549;-46
2021/10/09 02:49:26;;;;;;;16.23;7.97;;;9.00;99.90;;;;;;5080449;28;20881;-44
2021/10/09 02:51:53;;;;;;;13.00;6.57;;;9.00;99.90;;;;;;5088804;22;20493;-46
2021/10/09 02:54:20;;;;;;;14.90;7.33;;;9.00;99.90;;;;;;5081599;28;20473;-45
2021/10/09 02:56:46;;;;;;;31.27;8.53;;;8.90;99.90;;;;;;5089114;22;20482;-46
2021/10/09 02:59:13;;;;;;;21.20;7.27;;;8.80;99.90;;;;;;5082119;28;20981;-45
2021/10/09 03:01:40;;;;;;;14.33;6.73;;;8.80;99.90;;;;;;5096327;22;20854;-48
2021/10/09 03:04:07;;;;;;;13.10;6.37;;;8.80;99.90;;;;;;5082208;28;20478;-44
2021/10/09 03:06:34;;;;;;;11.43;6.70;;;8.80;99.90;;;;;;5089434;22;20477;-43
2021/10/09 03:09:01;;;;;;;15.23;6.53;;;8.80;99.90;;;;;;5083342;28;20571;-44
2021/10/09 03:13:57;;;;;;;21.23;7.33;;;8.70;99.90;;;;;;5101940;22;20490;-47
2021/10/09 03:16:25;;;;;;;12.20;6.63;;;8.70;99.90;;;;;;5081565;28;20462;-48
2021/10/09 03:18:52;;;;;;;9.63;5.73;;;8.70;99.90;;;;;;5089297;22;20477;-43
2021/10/09 03:21:20;;;;;;;20.33;7.17;;;8.70;99.90;;;;;;5082311;28;20431;-45
2021/10/09 03:23:47;;;;;;;20.13;6.93;;;8.80;99.90;;;;;;5088873;22;20482;-44
2021/10/09 03:26:13;;;;;;;11.70;6.50;;;8.70;99.90;;;;;;5081468;28;20903;-45
2021/10/09 03:28:40;;;;;;;11.13;6.77;;;8.70;99.90;;;;;;5089481;22;20883;-49
2021/10/09 03:31:07;;;;;;;12.40;6.63;;;8.60;99.90;;;;;;5081886;28;20501;-44
2021/10/09 03:33:33;;;;;;;13.70;7.17;;;8.60;99.90;;;;;;5089296;22;20485;-43
2021/10/09 03:36:02;;;;;;;17.93;8.47;;;8.60;99.90;;;;;;5084325;28;20447;-43
2021/10/09 03:38:30;;;;;;;18.60;7.23;;;8.60;99.90;;;;;;5089099;22;20502;-45
2021/10/09 03:41:00;;;;;;;10.57;6.03;;;8.60;99.90;;;;;;5080624;28;20437;-46
2021/10/09 03:43:26;;;;;;;10.47;6.60;;;8.60;99.90;;;;;;5088614;22;20482;-46
2021/10/09 03:45:58;;;;;;;13.67;7.40;;;8.50;99.90;;;;;;5081657;28;20446;-45
2021/10/09 03:54:00;;;;;;;9.00;5.40;;;8.40;99.90;;;;;;5088619;22;20834;-47
2021/10/09 03:56:27;;;;;;;18.67;6.43;;;8.40;99.90;;;;;;5081373;28;20442;-44
2021/10/09 03:58:53;;;;;;;13.40;6.87;;;8.40;99.90;;;;;;5103488;22;20563;-47
2021/10/09 04:01:20;;;;;;;22.30;7.10;;;8.30;99.90;;;;;;5083149;28;20450;-44
2021/10/09 04:03:47;;;;;;;15.03;8.23;;;8.30;99.90;;;;;;5093468;22;20492;-47
2021/10/09 04:06:13;;;;;;;19.13;8.13;;;8.30;99.90;;;;;;5081201;28;20454;-43
2021/10/09 04:08:49;;;;;;;14.23;7.60;;;8.20;99.90;;;;;;5088698;22;20951;-48
2021/10/09 04:11:17;;;;;;;21.73;6.97;;;8.20;99.90;;;;;;5059162;28;20955;-46
2021/10/09 04:16:16;;;;;;;16.60;7.27;;;8.10;99.90;;;;;;5086494;22;20486;-47
2021/10/09 04:18:42;;;;;;;13.60;6.47;;;8.10;99.90;;;;;;5080787;28;20516;-46
2021/10/09 04:21:09;;;;;;;14.90;7.20;;;8.10;99.90;;;;;;5088366;22;20486;-43
2021/10/09 04:23:36;;;;;;;16.40;7.87;;;8.10;99.90;;;;;;5081095;28;20490;-47
2021/10/09 04:26:02;;;;;;;18.07;7.83;;;8.00;99.90;;;;;;5103571;22;20490;-43
2021/10/09 04:28:30;;;;;;;12.30;6.10;;;8.00;99.90;;;;;;5081362;28;20796;-47
2021/10/09 04:30:57;;;;;;;16.73;6.63;;;7.90;99.90;;;;;;5100651;22;20493;-46
2021/10/09 04:33:25;;;;;;;13.07;6.60;;;8.00;99.90;;;;;;5105207;28;20487;-47
2021/10/09 04:35:52;;;;;;;16.77;7.20;;;7.90;99.90;;;;;;5101052;22;20486;-43
2021/10/09 04:38:18;;;;;;;17.90;7.43;;;7.90;99.90;;;;;;5079934;28;20473;-49
2021/10/09 04:40:48;;;;;;;14.07;6.30;;;7.90;99.90;;;;;;5095316;22;20473;-48
2021/10/09 04:43:19;;;;;;;18.80;8.37;;;7.80;99.90;;;;;;5100392;28;20484;-45
2021/10/09 04:45:47;;;;;;;17.30;7.70;;;7.80;99.90;;;;;;5102160;22;20528;-45
2021/10/09 04:48:14;;;;;;;13.27;6.83;;;7.80;99.90;;;;;;5080012;28;20471;-42
2021/10/09 04:50:40;;;;;;;19.60;7.40;;;7.80;99.90;;;;;;5087726;22;20508;-44
2021/10/09 04:53:07;;;;;;;14.53;5.43;;;7.80;99.90;;;;;;5080374;28;20500;-46
2021/10/09 04:55:37;;;;;;;22.83;6.97;;;7.80;99.90;;;;;;5087588;22;20853;-46
2021/10/09 04:58:04;;;;;;;12.90;6.20;;;7.80;99.90;;;;;;5080597;28;20509;-46
2021/10/09 05:03:18;;;;;;;15.17;5.87;;;7.70;99.90;;;;;;5087159;22;20922;-47
2021/10/09 05:08:10;;;;;;;11.23;7.27;;;7.60;99.90;;;;;;5082306;22;20481;-45
2021/10/09 05:10:39;;;;;;;15.87;6.50;;;7.70;99.90;;;;;;5080023;28;20234;-45
2021/10/09 05:13:12;;;;;;;14.63;7.10;;;7.70;99.90;;;;;;5106670;22;20547;-48
2021/10/09 05:15:41;;;;;;;20.80;7.00;;;7.60;99.90;;;;;;5081816;28;20427;-44
2021/10/09 05:18:09;;;;;;;13.13;6.73;;;7.60;99.90;;;;;;5095575;22;21081;-45
2021/10/09 05:20:37;;;;;;;13.23;7.13;;;7.60;99.90;;;;;;5099784;28;20457;-44
2021/10/09 05:23:04;;;;;;;13.53;6.53;;;7.60;99.90;;;;;;5103843;22;20486;-42
2021/10/09 05:25:32;;;;;;;15.00;7.60;;;7.60;99.90;;;;;;5080344;28;20559;-44
2021/10/09 05:28:02;;;;;;;23.10;7.33;;;7.60;99.90;;;;;;5088326;22;20470;-47
2021/10/09 05:30:30;;;;;;;11.40;7.57;;;7.50;99.90;;;;;;5081335;28;20756;-45
2021/10/09 05:33:14;;;;;;;9.40;6.20;;;7.50;99.90;;;;;;5104109;22;20481;-46
2021/10/09 05:35:42;;;;;;;19.73;7.03;;;7.50;99.90;;;;;;5081663;28;20461;-44
2021/10/09 05:38:09;;;;;;;13.07;5.97;;;7.50;99.90;;;;;;5104316;22;20493;-45
2021/10/09 05:40:36;;;;;;;17.50;8.37;;;7.40;99.90;;;;;;5081615;28;20426;-45
2021/10/09 05:45:34;;;;;;;14.00;6.30;;;7.40;99.90;;;;;;5087461;22;20489;-48
2021/10/09 05:48:01;;;;;;;16.90;7.07;;;7.30;99.90;;;;;;5081951;28;20466;-44
2021/10/09 05:50:32;;;;;;;12.23;7.60;;;7.30;99.90;;;;;;5107644;22;20516;-45
2021/10/09 05:53:09;;;;;;;12.70;7.73;;;7.40;99.90;;;;;;5103756;28;20469;-44
2021/10/09 05:55:39;;;;;;;12.33;6.70;;;7.40;99.90;;;;;;5090834;22;21049;-46
2021/10/09 05:58:09;;;;;;;8.30;5.67;;;7.30;99.90;;;;;;5080747;28;20475;-40
2021/10/09 06:01:05;;;;;;;18.43;7.90;;;7.40;99.90;;;;;;5111809;22;20485;-44
2021/10/09 06:42:19;;;;;;;19.50;7.50;;;7.70;99.90;;;;;;5083075;22;20591;-44
2021/10/09 06:47:42;;;;;;;12.37;6.53;;;7.80;99.90;;;;;;5083761;22;20489;-46
2021/10/09 06:50:21;;;;;;;15.07;7.20;;;7.80;99.90;;;;;;5086418;28;20539;-44
2021/10/09 07:01:05;;;;;;;12.43;6.73;;;8.00;99.90;;;;;;5085255;28;20417;-44
2021/10/09 07:03:32;;;;;;;9.43;6.23;;;8.10;99.90;;;;;;5092364;22;20489;-49
2021/10/09 07:05:59;;;;;;;8.70;6.57;;;8.20;99.90;;;;;;5085295;28;20446;-50
2021/10/09 07:08:25;;;;;;;10.10;6.37;;;8.30;99.90;;;;;;5091870;22;20494;-50
2021/10/09 07:10:53;;;;;;;12.10;6.80;;;8.30;99.90;;;;;;5084761;28;20434;-50
2021/10/09 07:15:51;;;;;;;14.17;6.83;;;8.40;99.90;;;;;;5089860;22;20485;-45
2021/10/09 07:18:24;;;;;;;16.73;7.13;;;8.40;99.90;;;;;;5083634;28;20457;-49
2021/10/09 07:20:51;;;;;;;14.70;7.20;;;8.50;99.90;;;;;;5090628;22;20505;-51
2021/10/09 07:23:18;;;;;;;12.93;6.70;;;8.60;99.90;;;;;;5083218;28;20476;-47
2021/10/09 07:25:44;;;;;;;14.40;7.70;;;8.70;99.90;;;;;;5090585;22;20489;-45
2021/10/09 07:28:11;;;;;;;14.33;6.90;;;8.80;99.90;;;;;;5083713;28;20476;-50
2021/10/09 07:30:38;;;;;;;13.70;6.60;;;8.90;99.90;;;;;;5089927;22;20494;-47
2021/10/09 07:33:05;;;;;;;12.47;8.07;;;8.90;99.90;;;;;;5082889;28;20819;-47
2021/10/09 07:35:34;;;;;;;12.67;6.23;;;9.00;99.90;;;;;;5104598;22;20494;-48
2021/10/09 07:38:00;;;;;;;26.87;6.90;;;9.10;99.90;;;;;;5083302;28;20437;-50
2021/10/09 07:40:27;;;;;;;12.87;6.53;;;9.20;99.90;;;;;;5089173;22;20951;-49
2021/10/09 07:42:54;;;;;;;14.37;8.20;;;9.30;99.90;;;;;;5082992;28;20537;-47
2021/10/09 07:45:21;;;;;;;11.23;7.17;;;9.30;99.90;;;;;;5089176;22;20559;-43
2021/10/09 07:47:49;;;;;;;14.13;7.30;;;9.40;99.90;;;;;;5089247;22;20858;-46
2021/10/09 07:50:16;;;;;;;11.63;6.43;;;9.50;99.90;;;;;;5081989;28;20512;-45
2021/10/09 07:52:44;;;;;;;9.97;5.57;;;9.60;99.90;;;;;;5089121;22;20490;-47
2021/10/09 07:55:10;;;;;;;15.50;6.03;;;9.70;99.90;;;;;;5081750;28;20519;-43
2021/10/09 07:57:37;;;;;;;11.90;6.53;;;9.90;99.90;;;;;;5088227;22;20485;-46
2021/10/09 08:00:05;;;;;;;19.63;6.00;;;9.90;99.90;;;;;;5081882;28;20768;-49
2021/10/09 08:02:34;;;;;;;10.10;5.97;;;10.00;99.90;;;;;;5088823;22;20873;-50
2021/10/09 08:05:01;;;;;;;14.27;5.80;;;10.00;99.90;;;;;;5081401;28;20491;-46
2021/10/09 08:07:30;;;;;;;16.53;6.63;;;10.10;99.90;;;;;;5081266;28;20462;-41
2021/10/09 08:09:58;;;;;;;13.47;7.30;;;10.10;99.90;;;;;;5082137;28;20466;-46
2021/10/09 08:12:24;;;;;;;12.27;6.93;;;10.20;99.90;;;;;;5082953;28;20442;-46
2021/10/09 08:14:51;;;;;;;14.23;7.00;;;10.30;99.90;;;;;;5081182;28;20466;-49
2021/10/09 08:17:18;;;;;;;12.40;6.70;;;10.40;99.90;;;;;;5080009;28;20450;-48
2021/10/09 08:19:44;;;;;;;10.70;5.80;;;10.50;99.90;;;;;;5080454;28;20529;-44
2021/10/09 08:22:11;;;;;;;11.00;5.73;;;10.60;99.90;;;;;;5080020;28;20476;-43
2021/10/09 08:24:42;;;;;;;27.23;7.20;;;10.60;99.90;;;;;;5080177;28;20524;-47
2021/10/09 08:27:36;;;;;;;17.27;5.53;;;10.80;99.90;;;;;;5080268;28;20492;-47
2021/10/09 08:35:38;;;;;;;9.00;6.63;;;11.20;99.90;;;;;;5080046;28;20445;-44
2021/10/09 08:40:50;;;;;;;13.80;6.07;;;11.50;99.90;;;;;;5080627;28;20453;-46
2021/10/09 08:43:18;;;;;;;10.57;5.33;;;11.80;99.90;;;;;;5080912;28;20897;-43
2021/10/09 08:45:46;;;;;;;7.70;5.20;;;12.10;99.90;;;;;;5078784;28;20513;-48
2021/10/09 08:48:16;;;;;;;10.23;5.20;;;13.00;99.90;;;;;;5078542;28;20474;-45
2021/10/09 08:50:43;;;;;;;10.00;4.80;;;14.10;99.90;;;;;;5077426;28;20841;-44
2021/10/09 08:53:11;;;;;;;10.80;5.00;;;15.80;99.80;;;;;;5076828;28;20508;-49
2021/10/09 08:55:40;;;;;;;10.23;6.30;;;17.60;91.30;;;;;;5076250;28;20498;-48
2021/10/09 08:58:10;;;;;;;9.83;5.03;;;19.40;78.00;;;;;;5076049;28;20442;-45
2021/10/09 09:00:52;;;;;;;9.43;5.43;;;21.10;66.50;;;;;;5075230;28;21014;-44
2021/10/09 09:03:26;;;;;;;13.20;5.70;;;22.50;57.60;;;;;;5075450;28;20466;-44
2021/10/09 09:06:01;;;;;;;5.10;4.10;;;23.40;53.70;;;;;;5075611;28;20809;-47
2021/10/09 09:09:03;;;;;;;7.40;4.70;;;23.20;50.60;;;;;;5075654;28;20434;-49
2021/10/09 09:31:36;;;;;;;7.03;5.30;;;19.10;56.50;;;;;;5077814;28;20480;-50
2021/10/09 09:34:24;;;;;;;9.80;4.70;;;19.40;56.30;;;;;;5076999;28;20481;-47
2021/10/09 09:37:05;;;;;;;8.43;4.57;;;20.60;57.00;;;;;;5076794;28;20438;-56
2021/10/09 09:39:44;;;;;;;4.83;3.87;;;22.30;53.00;;;;;;5075629;28;20504;-47
2021/10/09 09:42:12;;;;;;;7.83;5.10;;;23.80;50.80;;;;;;5075068;28;20453;-46
2021/10/09 09:44:53;;;;;;;4.40;4.00;;;24.60;48.10;;;;;;5074845;28;20482;-44
2021/10/09 09:47:33;;;;;;;5.53;4.47;;;25.40;45.80;;;;;;5075094;28;20426;-50
2021/10/09 09:50:01;;;;;;;10.90;5.50;;;25.90;44.10;;;;;;5074483;28;20557;-45
2021/10/09 09:52:29;;;;;;;6.87;4.50;;;26.30;43.10;;;;;;5074813;28;20511;-47
2021/10/09 09:54:56;;;;;;;6.20;4.83;;;26.70;41.60;;;;;;5074453;28;20462;-45
2021/10/09 09:57:24;;;;;;;7.60;4.80;;;27.00;40.90;;;;;;5074755;28;20453;-49
2021/10/09 09:59:53;;;;;;;7.53;4.60;;;27.20;39.80;;;;;;5074688;28;20544;-61
2021/10/09 10:02:21;;;;;;;4.77;4.37;;;26.90;39.70;;;;;;5074589;28;20512;-50
2021/10/09 10:04:49;;;;;;;7.87;4.70;;;26.90;39.50;;;;;;5074425;28;20477;-50
2021/10/09 10:07:18;;;;;;;5.73;4.60;;;27.00;39.60;;;;;;5074729;28;20450;-48
2021/10/09 10:09:45;;;;;;;6.03;5.10;;;27.10;39.10;;;;;;5074635;28;20446;-46
2021/10/09 10:12:11;;;;;;;7.20;4.50;;;27.10;39.20;;;;;;5074861;28;20745;-47
2021/10/09 10:14:39;;;;;;;6.00;4.67;;;27.00;39.00;;;;;;5074573;28;20458;-47
2021/10/09 10:17:05;;;;;;;6.40;4.10;;;27.10;39.20;;;;;;5074592;28;20829;-48
2021/10/09 10:20:00;;;;;;;10.23;4.27;;;27.50;37.90;;;;;;5074501;28;20446;-46
2021/10/09 10:22:59;;;;;;;8.43;5.27;;;27.30;38.10;;;;;;5074647;28;20521;-48
2021/10/09 10:25:38;;;;;;;7.07;6.13;;;27.30;38.20;;;;;;5074463;28;20482;-52
2021/10/09 10:28:07;;;;;;;9.90;5.00;;;27.10;38.50;;;;;;5074504;28;20950;-47
2021/10/09 10:30:37;;;;;;;7.17;4.80;;;27.00;38.10;;;;;;5074255;28;20502;-48
2021/10/09 10:33:30;;;;;;;8.60;5.40;;;26.60;38.50;;;;;;5074183;28;20965;-46
2021/10/09 10:35:56;;;;;;;11.20;5.07;;;26.40;39.10;;;;;;5074612;28;20470;-46
2021/10/09 10:41:47;;;;;;;9.13;5.07;;;25.90;39.70;;;;;;5073927;28;20536;-46
2021/10/09 10:44:49;;;;;;;6.30;4.33;;;25.50;40.90;;;;;;5075766;28;20724;-44
2021/10/09 10:47:38;;;;;;;7.40;4.60;;;25.20;40.40;;;;;;5074814;28;20434;-46
2021/10/09 10:50:15;;;;;;;5.67;3.90;;;24.70;41.50;;;;;;5074123;28;20446;-47
2021/10/09 10:52:54;;;;;;;16.73;11.17;;;24.30;41.20;;;;;;5074371;28;20441;-46
2021/10/09 10:55:22;;;;;;;7.23;5.33;;;23.80;43.40;;;;;;5074648;28;20469;-45
2021/10/09 10:58:20;;;;;;;6.77;5.17;;;23.30;44.10;;;;;;5074112;28;20446;-46
2021/10/09 11:01:18;;;;;;;7.63;5.13;;;22.70;43.60;;;;;;5074458;28;20509;-49
2021/10/09 11:03:49;;;;;;;6.47;5.30;;;22.10;44.90;;;;;;5074575;28;20441;-47
2021/10/09 11:06:20;;;;;;;4.43;3.63;;;21.60;45.30;;;;;;5074420;28;20505;-48
2021/10/09 11:08:48;;;;;;;6.20;4.10;;;21.10;45.00;;;;;;5074670;28;20929;-47
2021/10/09 11:11:17;;;;;;;6.60;4.20;;;20.80;45.40;;;;;;5077995;28;20478;-47
2021/10/09 11:13:49;;;;;;;8.50;4.40;;;20.50;46.20;;;;;;5078157;28;20438;-48
2021/10/09 11:16:15;;;;;;;4.93;3.70;;;20.20;47.10;;;;;;5078173;28;20984;-48
2021/10/09 11:18:53;;;;;;;7.20;3.70;;;20.00;46.90;;;;;;5078186;28;20446;-43
2021/10/09 11:21:20;;;;;;;8.73;3.70;;;19.70;47.10;;;;;;5077755;28;20888;-45
2021/10/09 11:23:51;;;;;;;6.23;3.80;;;19.50;47.80;;;;;;5078016;28;20438;-43
2021/10/09 11:26:19;;;;;;;8.60;3.47;;;19.30;48.50;;;;;;5078089;28;20798;-48
2021/10/09 11:28:46;;;;;;;5.10;3.17;;;19.00;49.60;;;;;;5078348;28;20451;-43
2021/10/09 11:31:25;;;;;;;8.33;5.13;;;18.70;49.30;;;;;;5078241;28;20541;-48
2021/10/09 11:33:56;;;;;;;5.30;3.90;;;18.50;51.00;;;;;;5077957;28;20864;-45
2021/10/09 11:36:23;;;;;;;6.47;4.20;;;18.30;51.30;;;;;;5078293;28;20497;-46
2021/10/09 11:39:00;;;;;;;5.60;3.40;;;18.20;51.30;;;;;;5078244;28;20823;-47
2021/10/09 11:41:28;;;;;;;3.80;2.80;;;18.00;51.30;;;;;;5078059;28;20480;-47
2021/10/09 11:44:00;;;;;;;5.73;3.00;;;17.90;51.60;;;;;;5078421;28;20450;-48
2021/10/09 11:46:44;;;;;;;5.13;3.63;;;17.90;51.00;;;;;;5078431;28;20486;-48
2021/10/09 11:55:00;;;;;;;4.50;3.57;;;17.80;50.30;;;;;;5078284;28;20422;-45
2021/10/09 11:57:29;;;;;;;5.67;3.87;;;17.80;50.60;;;;;;5078402;28;20579;-47
2021/10/09 11:59:56;;;;;;;5.90;3.17;;;17.80;51.40;;;;;;5079983;28;20442;-48
2021/10/09 12:02:33;;;;;;;9.00;3.80;;;17.70;50.70;;;;;;5079988;28;20857;-47
2021/10/09 12:04:59;;;;;;;5.60;2.93;;;17.70;51.80;;;;;;5079089;28;20494;-45
2021/10/09 12:07:27;;;;;;;6.53;3.13;;;17.70;52.10;;;;;;5079160;28;20484;-48
2021/10/09 12:09:58;;;;;;;7.80;3.30;;;17.70;51.40;;;;;;5078737;28;20931;-45
2021/10/09 12:12:31;;;;;;;4.37;2.63;;;17.70;51.40;;;;;;5079256;28;20478;-50
2021/10/09 12:15:00;;;;;;;7.73;4.63;;;17.80;51.10;;;;;;5078108;28;20430;-50
2021/10/09 12:17:37;;;;;;;5.37;3.30;;;17.80;51.50;;;;;;5078040;28;20566;-47
2021/10/09 12:20:06;;;;;;;4.43;3.87;;;17.80;50.90;;;;;;5076204;28;20430;-49
2021/10/09 12:22:42;;;;;;;5.50;3.67;;;17.80;51.00;;;;;;5075832;28;20952;-50
2021/10/09 12:25:19;;;;;;;4.73;3.30;;;17.90;50.70;;;;;;5075833;28;20552;-52
2021/10/09 12:27:54;;;;;;;8.07;3.20;;;17.90;50.10;;;;;;5075792;28;20509;-46
2021/10/09 12:30:22;;;;;;;2.97;2.70;;;18.00;49.90;;;;;;5076154;28;20491;-47
2021/10/09 12:32:50;;;;;;;6.07;4.07;;;17.90;49.60;;;;;;5075631;28;20504;-48
2021/10/09 12:35:21;;;;;;;5.27;3.33;;;17.90;49.70;;;;;;5075588;28;20984;-51
2021/10/09 12:37:55;;;;;;;5.13;3.30;;;18.00;50.40;;;;;;5077048;28;20433;-48
2021/10/09 12:40:24;;;;;;;3.90;2.80;;;18.00;50.30;;;;;;5076556;28;20445;-51
2021/10/09 12:42:52;;;;;;;7.27;3.43;;;18.10;50.30;;;;;;5075764;28;20541;-52
2021/10/09 12:45:22;;;;;;;3.57;2.60;;;18.20;50.50;;;;;;5075690;28;20774;-46
2021/10/09 12:47:49;;;;;;;4.77;3.47;;;18.20;50.40;;;;;;5075661;28;20446;-48
2021/10/09 12:50:18;;;;;;;6.77;3.40;;;18.20;50.80;;;;;;5075761;28;20496;-49
2021/10/09 12:52:46;;;;;;;6.73;4.30;;;18.10;50.30;;;;;;5075766;28;20462;-48
2021/10/09 12:55:14;;;;;;;4.47;3.70;;;18.10;50.90;;;;;;5075597;28;20439;-52
2021/10/09 12:57:49;;;;;;;4.83;3.17;;;18.10;50.10;;;;;;5075656;28;20446;-49
2021/10/09 13:00:16;;;;;;;5.10;3.97;;;18.10;50.20;;;;;;5075685;28;20533;-46
2021/10/09 13:02:45;;;;;;;5.10;3.77;;;18.10;50.30;;;;;;5075196;28;20478;-50
2021/10/09 13:05:12;;;;;;;4.30;3.20;;;18.10;50.50;;;;;;5075361;28;20524;-43
2021/10/09 13:07:38;;;;;;;6.00;3.07;;;18.20;50.40;;;;;;5075335;28;20462;-52
2021/10/09 13:10:07;;;;;;;4.23;2.90;;;18.30;50.00;;;;;;5075278;28;20459;-50
2021/10/09 13:12:33;;;;;;;6.33;3.67;;;18.40;49.10;;;;;;5075151;28;20532;-50
2021/10/09 13:15:00;;;;;;;4.33;2.67;;;18.40;49.20;;;;;;5075452;28;20456;-49
2021/10/09 13:17:27;;;;;;;5.60;3.30;;;18.40;48.90;;;;;;5075235;28;20473;-44
2021/10/09 13:19:55;;;;;;;4.50;3.37;;;18.30;48.90;;;;;;5075472;28;20588;-47
2021/10/09 13:22:22;;;;;;;4.30;2.80;;;18.30;49.20;;;;;;5075157;28;20470;-43
2021/10/09 13:24:49;;;;;;;6.03;2.50;;;18.30;49.10;;;;;;5076386;28;20438;-50
2021/10/09 13:27:16;;;;;;;5.53;3.20;;;18.20;49.00;;;;;;5075531;28;20838;-46
2021/10/09 13:29:42;;;;;;;5.23;3.70;;;18.30;49.60;;;;;;5075221;28;20603;-46
2021/10/09 13:32:09;;;;;;;4.90;3.33;;;18.20;49.20;;;;;;5074387;28;20549;-44
2021/10/09 13:34:36;;;;;;;5.17;3.20;;;18.30;50.50;;;;;;5074952;28;20822;-48
2021/10/09 13:37:04;;;;;;;6.10;2.67;;;18.20;50.30;;;;;;5074892;28;20531;-46
2021/10/09 13:39:31;;;;;;;2.87;2.33;;;18.20;50.60;;;;;;5074921;28;20443;-48
2021/10/09 13:41:58;;;;;;;4.40;2.77;;;18.20;50.10;;;;;;5074768;28;20477;-46
2021/10/09 13:44:25;;;;;;;3.20;2.63;;;18.10;49.70;;;;;;5074979;28;20899;-57
2021/10/09 13:46:51;;;;;;;3.77;2.67;;;18.10;49.60;;;;;;5074961;28;20486;-52
2021/10/09 13:49:18;;;;;;;4.77;2.97;;;18.10;51.20;;;;;;5075172;28;20483;-45
2021/10/09 13:51:45;;;;;;;6.67;3.00;;;18.10;50.30;;;;;;5074478;28;20470;-51
2021/10/09 13:54:13;;;;;;;4.37;3.30;;;18.20;51.10;;;;;;5074403;28;20446;-46
2021/10/09 13:56:39;;;;;;;6.60;3.80;;;18.20;50.20;;;;;;5074761;28;20450;-50
2021/10/09 13:59:06;;;;;;;3.53;2.80;;;18.20;51.10;;;;;;5074478;28;20430;-48
2021/10/09 14:01:33;;;;;;;2.80;2.50;;;18.10;49.40;;;;;;5074427;28;20466;-50
2021/10/09 14:03:59;;;;;;;4.60;3.20;;;18.10;49.20;;;;;;5074607;28;20430;-50
2021/10/09 14:06:26;;;;;;;4.47;3.00;;;18.10;49.10;;;;;;5074605;28;21020;-45
2021/10/09 14:08:53;;;;;;;3.70;3.30;;;18.10;49.60;;;;;;5074833;28;20942;-52
2021/10/09 14:11:21;;;;;;;3.60;2.80;;;18.10;49.30;;;;;;5074558;28;20538;-44
2021/10/09 14:13:49;;;;;;;3.83;3.03;;;18.10;49.00;;;;;;5075511;28;20557;-48
2021/10/09 14:16:15;;;;;;;2.97;2.60;;;18.20;49.20;;;;;;5074839;28;20465;-57
2021/10/09 14:18:42;;;;;;;4.43;2.63;;;18.30;49.30;;;;;;5074297;28;20472;-51
2021/10/09 14:21:09;;;;;;;6.27;2.80;;;18.30;49.60;;;;;;5074097;28;20449;-45
2021/10/09 14:23:35;;;;;;;5.87;3.57;;;18.40;50.00;;;;;;5073929;28;20469;-47
2021/10/09 14:26:02;;;;;;;3.07;2.70;;;18.60;50.40;;;;;;5075120;28;20504;-45
2021/10/09 14:28:30;;;;;;;6.60;3.27;;;18.60;49.80;;;;;;5074689;28;20450;-49
2021/10/09 14:30:57;;;;;;;5.20;3.07;;;18.50;49.20;;;;;;5074458;28;20450;-46
2021/10/09 14:33:23;;;;;;;6.07;5.47;;;18.40;49.60;;;;;;5073980;28;21004;-49
2021/10/09 14:35:50;;;;;;;4.40;2.50;;;18.30;49.80;;;;;;5074406;28;20442;-49
2021/10/09 14:38:17;;;;;;;4.70;2.50;;;18.10;49.70;;;;;;5074481;28;20838;-51
2021/10/09 14:40:44;;;;;;;3.10;2.80;;;18.10;49.90;;;;;;5074023;28;20980;-47
2021/10/09 14:43:11;;;;;;;4.60;2.87;;;18.00;50.10;;;;;;5075092;28;20474;-48
2021/10/09 14:45:41;;;;;;;4.13;3.03;;;17.80;50.00;;;;;;5084230;22;20482;-48
2021/10/09 14:48:12;;;;;;;4.33;3.00;;;17.70;50.20;;;;;;5077777;28;20948;-47
2021/10/09 14:50:52;;;;;;;2.87;2.50;;;17.60;50.40;;;;;;5078069;28;20766;-48
2021/10/09 14:53:37;;;;;;;3.90;2.70;;;17.50;50.80;;;;;;5078061;28;20535;-46
2021/10/09 14:56:28;;;;;;;5.73;3.00;;;17.40;51.10;;;;;;5078042;28;20426;-49